sensor_id;sensor_type;location;lat;lon;timestamp;pressure;altitude;pressure_sealevel;temperature;humidity
19108;BME280;9686;48.832;9.126;2022-08-19T00:01:19;97703.50;;;22.42;100.00
19108;BME280;9686;48.832;9.126;2022-08-19T00:03:45;97710.13;;;22.35;100.00
19108;BME280;9686;48.832;9.126;2022-08-19T00:06:10;97697.53;;;22.39;100.00
19108;BME280;9686;48.832;9.126;2022-08-19T00:08:36;97701.56;;;22.30;100.00
19108;BME280;9686;48.832;9.126;2022-08-19T00:11:01;97694.56;;;22.29;100.00
19108;BME280;9686;48.832;9.126;2022-08-19T00:13:26;97688.22;;;22.32;100.00
19108;BME280;9686;48.832;9.126;2022-08-19T00:15:54;97694.28;;;22.34;100.00
19108;BME280;9686;48.832;9.126;2022-08-19T00:18:19;97697.97;;;22.31;100.00
19108;BME280;9686;48.832;9.126;2022-08-19T00:20:44;97701.97;;;22.38;100.00
19108;BME280;9686;48.832;9.126;2022-08-19T00:23:10;97712.00;;;22.33;100.00
19108;BME280;9686;48.832;9.126;2022-08-19T00:25:35;97704.03;;;22.33;100.00
19108;BME280;9686;48.832;9.126;2022-08-19T00:28:02;97707.28;;;22.24;100.00
19108;BME280;9686;48.832;9.126;2022-08-19T00:30:27;97706.31;;;22.25;100.00
19108;BME280;9686;48.832;9.126;2022-08-19T00:32:53;97703.38;;;22.30;100.00
19108;BME280;9686;48.832;9.126;2022-08-19T00:35:20;97693.63;;;22.30;100.00
19108;BME280;9686;48.832;9.126;2022-08-19T00:37:47;97686.78;;;22.26;100.00
19108;BME280;9686;48.832;9.126;2022-08-19T00:40:14;97683.84;;;22.31;100.00
19108;BME280;9686;48.832;9.126;2022-08-19T00:42:40;97679.47;;;22.30;100.00
19108;BME280;9686;48.832;9.126;2022-08-19T00:45:11;97674.66;;;22.22;100.00
19108;BME280;9686;48.832;9.126;2022-08-19T00:47:38;97661.66;;;22.18;100.00
19108;BME280;9686;48.832;9.126;2022-08-19T00:50:04;97667.63;;;22.21;100.00
19108;BME280;9686;48.832;9.126;2022-08-19T00:52:33;97672.19;;;22.19;100.00
19108;BME280;9686;48.832;9.126;2022-08-19T00:55:00;97674.09;;;22.17;100.00
19108;BME280;9686;48.832;9.126;2022-08-19T00:57:33;97678.44;;;22.18;100.00
19108;BME280;9686;48.832;9.126;2022-08-19T01:00:00;97681.66;;;22.23;100.00
19108;BME280;9686;48.832;9.126;2022-08-19T01:02:26;97688.69;;;22.24;100.00
19108;BME280;9686;48.832;9.126;2022-08-19T01:04:53;97700.53;;;22.19;100.00
19108;BME280;9686;48.832;9.126;2022-08-19T01:07:18;97693.25;;;22.22;100.00
19108;BME280;9686;48.832;9.126;2022-08-19T01:09:44;97688.78;;;22.23;100.00
19108;BME280;9686;48.832;9.126;2022-08-19T01:12:09;97686.97;;;22.23;100.00
19108;BME280;9686;48.832;9.126;2022-08-19T01:14:36;97687.63;;;22.27;100.00
19108;BME280;9686;48.832;9.126;2022-08-19T01:17:03;97686.13;;;22.23;100.00
19108;BME280;9686;48.832;9.126;2022-08-19T01:19:36;97688.97;;;22.20;100.00
19108;BME280;9686;48.832;9.126;2022-08-19T01:22:12;97687.66;;;22.12;100.00
19108;BME280;9686;48.832;9.126;2022-08-19T01:24:40;97681.56;;;22.10;100.00
19108;BME280;9686;48.832;9.126;2022-08-19T01:27:06;97678.03;;;22.10;100.00
19108;BME280;9686;48.832;9.126;2022-08-19T01:29:32;97681.19;;;22.17;100.00
19108;BME280;9686;48.832;9.126;2022-08-19T01:31:58;97681.97;;;22.19;100.00
19108;BME280;9686;48.832;9.126;2022-08-19T01:34:25;97691.91;;;22.15;100.00
19108;BME280;9686;48.832;9.126;2022-08-19T01:36:50;97678.84;;;22.12;100.00
19108;BME280;9686;48.832;9.126;2022-08-19T01:39:20;97676.19;;;22.12;100.00
19108;BME280;9686;48.832;9.126;2022-08-19T01:41:46;97673.78;;;22.07;100.00
19108;BME280;9686;48.832;9.126;2022-08-19T01:44:14;97675.91;;;22.01;100.00
19108;BME280;9686;48.832;9.126;2022-08-19T01:46:40;97676.69;;;22.03;100.00
19108;BME280;9686;48.832;9.126;2022-08-19T01:49:07;97675.75;;;22.04;100.00
19108;BME280;9686;48.832;9.126;2022-08-19T01:51:33;97673.44;;;22.13;100.00
19108;BME280;9686;48.832;9.126;2022-08-19T01:53:58;97677.19;;;22.09;100.00
19108;BME280;9686;48.832;9.126;2022-08-19T01:56:24;97667.50;;;22.08;100.00
19108;BME280;9686;48.832;9.126;2022-08-19T01:58:57;97672.06;;;22.06;100.00
19108;BME280;9686;48.832;9.126;2022-08-19T02:01:23;97675.56;;;22.07;100.00
19108;BME280;9686;48.832;9.126;2022-08-19T02:03:48;97681.84;;;22.06;100.00
19108;BME280;9686;48.832;9.126;2022-08-19T02:06:14;97680.97;;;22.05;100.00
19108;BME280;9686;48.832;9.126;2022-08-19T02:08:40;97686.53;;;22.01;100.00
19108;BME280;9686;48.832;9.126;2022-08-19T02:11:06;97697.84;;;22.04;100.00
19108;BME280;9686;48.832;9.126;2022-08-19T02:13:32;97689.94;;;22.03;100.00
19108;BME280;9686;48.832;9.126;2022-08-19T02:15:57;97693.66;;;22.00;100.00
19108;BME280;9686;48.832;9.126;2022-08-19T02:18:23;97683.63;;;22.05;100.00
19108;BME280;9686;48.832;9.126;2022-08-19T02:20:49;97678.22;;;22.07;100.00
19108;BME280;9686;48.832;9.126;2022-08-19T02:23:16;97682.94;;;22.02;100.00
19108;BME280;9686;48.832;9.126;2022-08-19T02:25:44;97676.78;;;22.01;100.00
19108;BME280;9686;48.832;9.126;2022-08-19T02:28:10;97682.78;;;22.05;100.00
19108;BME280;9686;48.832;9.126;2022-08-19T02:30:37;97685.59;;;22.02;100.00
19108;BME280;9686;48.832;9.126;2022-08-19T02:33:03;97686.34;;;21.90;100.00
19108;BME280;9686;48.832;9.126;2022-08-19T02:35:28;97681.88;;;21.90;100.00
19108;BME280;9686;48.832;9.126;2022-08-19T02:37:53;97686.34;;;21.90;100.00
19108;BME280;9686;48.832;9.126;2022-08-19T02:40:37;97673.16;;;21.88;100.00
19108;BME280;9686;48.832;9.126;2022-08-19T02:43:05;97682.94;;;21.88;100.00
19108;BME280;9686;48.832;9.126;2022-08-19T02:45:37;97682.09;;;21.87;100.00
19108;BME280;9686;48.832;9.126;2022-08-19T02:48:04;97671.81;;;21.81;100.00
19108;BME280;9686;48.832;9.126;2022-08-19T02:50:30;97679.19;;;21.76;100.00
19108;BME280;9686;48.832;9.126;2022-08-19T02:52:55;97680.13;;;21.75;100.00
19108;BME280;9686;48.832;9.126;2022-08-19T02:55:20;97674.75;;;21.76;100.00
19108;BME280;9686;48.832;9.126;2022-08-19T02:57:46;97673.88;;;21.76;100.00
19108;BME280;9686;48.832;9.126;2022-08-19T03:00:12;97673.22;;;21.72;100.00
19108;BME280;9686;48.832;9.126;2022-08-19T03:02:38;97678.63;;;21.71;100.00
19108;BME280;9686;48.832;9.126;2022-08-19T03:05:05;97664.78;;;21.66;100.00
19108;BME280;9686;48.832;9.126;2022-08-19T03:07:31;97665.06;;;21.61;100.00
19108;BME280;9686;48.832;9.126;2022-08-19T03:09:56;97671.38;;;21.59;100.00
19108;BME280;9686;48.832;9.126;2022-08-19T03:12:21;97672.41;;;21.56;100.00
19108;BME280;9686;48.832;9.126;2022-08-19T03:14:47;97671.38;;;21.59;100.00
19108;BME280;9686;48.832;9.126;2022-08-19T03:17:12;97677.31;;;21.48;100.00
19108;BME280;9686;48.832;9.126;2022-08-19T03:19:38;97674.09;;;21.43;100.00
19108;BME280;9686;48.832;9.126;2022-08-19T03:22:03;97684.03;;;21.39;100.00
19108;BME280;9686;48.832;9.126;2022-08-19T03:24:30;97685.63;;;21.42;100.00
19108;BME280;9686;48.832;9.126;2022-08-19T03:26:56;97682.31;;;21.38;100.00
19108;BME280;9686;48.832;9.126;2022-08-19T03:29:24;97679.00;;;21.35;100.00
19108;BME280;9686;48.832;9.126;2022-08-19T03:31:49;97674.69;;;21.32;100.00
19108;BME280;9686;48.832;9.126;2022-08-19T03:34:20;97681.78;;;21.32;100.00
19108;BME280;9686;48.832;9.126;2022-08-19T03:36:46;97672.47;;;21.40;100.00
19108;BME280;9686;48.832;9.126;2022-08-19T03:39:11;97682.66;;;21.32;100.00
19108;BME280;9686;48.832;9.126;2022-08-19T03:41:39;97690.09;;;21.26;100.00
19108;BME280;9686;48.832;9.126;2022-08-19T03:44:05;97687.69;;;21.21;100.00
19108;BME280;9686;48.832;9.126;2022-08-19T03:46:34;97693.25;;;21.16;100.00
19108;BME280;9686;48.832;9.126;2022-08-19T03:49:03;97687.09;;;21.16;100.00
19108;BME280;9686;48.832;9.126;2022-08-19T03:51:35;97678.97;;;21.19;100.00
19108;BME280;9686;48.832;9.126;2022-08-19T03:54:03;97672.63;;;21.21;100.00
19108;BME280;9686;48.832;9.126;2022-08-19T03:56:29;97679.66;;;21.22;100.00
19108;BME280;9686;48.832;9.126;2022-08-19T03:58:56;97689.66;;;21.17;100.00
19108;BME280;9686;48.832;9.126;2022-08-19T04:01:24;97687.78;;;21.04;100.00
19108;BME280;9686;48.832;9.126;2022-08-19T04:03:53;97695.72;;;21.04;100.00
19108;BME280;9686;48.832;9.126;2022-08-19T04:06:20;97691.13;;;21.07;100.00
19108;BME280;9686;48.832;9.126;2022-08-19T04:08:48;97684.28;;;21.03;100.00
19108;BME280;9686;48.832;9.126;2022-08-19T04:11:20;97688.13;;;21.13;100.00
19108;BME280;9686;48.832;9.126;2022-08-19T04:13:47;97690.19;;;21.08;100.00
19108;BME280;9686;48.832;9.126;2022-08-19T04:16:12;97690.78;;;21.13;100.00
19108;BME280;9686;48.832;9.126;2022-08-19T04:18:40;97690.88;;;21.12;100.00
19108;BME280;9686;48.832;9.126;2022-08-19T04:21:06;97689.56;;;21.03;100.00
19108;BME280;9686;48.832;9.126;2022-08-19T04:23:34;97691.38;;;21.03;100.00
19108;BME280;9686;48.832;9.126;2022-08-19T04:26:01;97698.56;;;21.01;100.00
19108;BME280;9686;48.832;9.126;2022-08-19T04:28:27;97684.38;;;21.02;100.00
19108;BME280;9686;48.832;9.126;2022-08-19T04:30:53;97691.66;;;20.98;100.00
19108;BME280;9686;48.832;9.126;2022-08-19T04:33:22;97691.81;;;21.11;100.00
19108;BME280;9686;48.832;9.126;2022-08-19T04:35:50;97681.38;;;21.08;100.00
19108;BME280;9686;48.832;9.126;2022-08-19T04:38:17;97680.38;;;21.10;100.00
19108;BME280;9686;48.832;9.126;2022-08-19T04:40:45;97673.19;;;21.12;100.00
19108;BME280;9686;48.832;9.126;2022-08-19T04:43:30;97677.00;;;21.07;100.00
19108;BME280;9686;48.832;9.126;2022-08-19T04:45:55;97683.25;;;21.06;100.00
19108;BME280;9686;48.832;9.126;2022-08-19T04:48:21;97697.13;;;21.11;100.00
19108;BME280;9686;48.832;9.126;2022-08-19T04:50:56;97700.94;;;21.05;100.00
19108;BME280;9686;48.832;9.126;2022-08-19T04:53:26;97696.59;;;21.20;100.00
19108;BME280;9686;48.832;9.126;2022-08-19T04:55:57;97696.69;;;21.18;100.00
19108;BME280;9686;48.832;9.126;2022-08-19T04:58:24;97695.91;;;21.16;100.00
19108;BME280;9686;48.832;9.126;2022-08-19T05:03:16;97697.72;;;21.16;100.00
19108;BME280;9686;48.832;9.126;2022-08-19T05:05:43;97701.97;;;21.18;100.00
19108;BME280;9686;48.832;9.126;2022-08-19T05:08:10;97703.09;;;21.14;100.00
19108;BME280;9686;48.832;9.126;2022-08-19T05:10:37;97700.72;;;21.10;100.00
19108;BME280;9686;48.832;9.126;2022-08-19T05:13:03;97709.63;;;21.09;100.00
19108;BME280;9686;48.832;9.126;2022-08-19T05:15:29;97705.75;;;21.14;100.00
19108;BME280;9686;48.832;9.126;2022-08-19T05:17:54;97708.50;;;21.13;100.00
19108;BME280;9686;48.832;9.126;2022-08-19T05:20:38;97716.28;;;21.16;100.00
19108;BME280;9686;48.832;9.126;2022-08-19T05:23:23;97713.63;;;21.16;100.00
19108;BME280;9686;48.832;9.126;2022-08-19T05:25:49;97724.31;;;21.14;100.00
19108;BME280;9686;48.832;9.126;2022-08-19T05:28:15;97743.91;;;21.12;100.00
19108;BME280;9686;48.832;9.126;2022-08-19T05:30:40;97747.13;;;21.17;100.00
19108;BME280;9686;48.832;9.126;2022-08-19T05:33:08;97757.84;;;21.31;100.00
19108;BME280;9686;48.832;9.126;2022-08-19T05:35:36;97762.19;;;21.16;100.00
19108;BME280;9686;48.832;9.126;2022-08-19T05:38:02;97769.38;;;21.14;100.00
19108;BME280;9686;48.832;9.126;2022-08-19T05:40:27;97780.91;;;21.13;100.00
19108;BME280;9686;48.832;9.126;2022-08-19T05:42:53;97783.22;;;21.19;100.00
19108;BME280;9686;48.832;9.126;2022-08-19T05:45:19;97788.34;;;21.22;100.00
19108;BME280;9686;48.832;9.126;2022-08-19T05:47:46;97792.13;;;21.18;100.00
19108;BME280;9686;48.832;9.126;2022-08-19T05:50:12;97784.06;;;21.20;100.00
19108;BME280;9686;48.832;9.126;2022-08-19T05:52:38;97787.44;;;21.23;100.00
19108;BME280;9686;48.832;9.126;2022-08-19T05:55:03;97783.91;;;21.23;100.00
19108;BME280;9686;48.832;9.126;2022-08-19T05:57:29;97790.84;;;21.26;100.00
19108;BME280;9686;48.832;9.126;2022-08-19T05:59:55;97786.56;;;21.23;100.00
19108;BME280;9686;48.832;9.126;2022-08-19T06:02:22;97786.16;;;21.31;100.00
19108;BME280;9686;48.832;9.126;2022-08-19T06:04:47;97795.50;;;21.38;100.00
19108;BME280;9686;48.832;9.126;2022-08-19T06:07:13;97787.09;;;21.30;100.00
19108;BME280;9686;48.832;9.126;2022-08-19T06:09:39;97793.88;;;21.35;100.00
19108;BME280;9686;48.832;9.126;2022-08-19T06:12:05;97795.03;;;21.30;100.00
19108;BME280;9686;48.832;9.126;2022-08-19T06:14:33;97792.78;;;21.22;100.00
19108;BME280;9686;48.832;9.126;2022-08-19T06:17:00;97787.94;;;21.30;100.00
19108;BME280;9686;48.832;9.126;2022-08-19T06:19:28;97790.09;;;21.23;100.00
19108;BME280;9686;48.832;9.126;2022-08-19T06:21:55;97788.13;;;21.27;100.00
19108;BME280;9686;48.832;9.126;2022-08-19T06:24:25;97780.66;;;21.18;100.00
19108;BME280;9686;48.832;9.126;2022-08-19T06:26:52;97784.78;;;21.23;100.00
19108;BME280;9686;48.832;9.126;2022-08-19T06:29:20;97785.66;;;21.24;100.00
19108;BME280;9686;48.832;9.126;2022-08-19T06:31:48;97784.69;;;21.25;100.00
19108;BME280;9686;48.832;9.126;2022-08-19T06:34:15;97775.81;;;21.26;100.00
19108;BME280;9686;48.832;9.126;2022-08-19T06:36:44;97783.59;;;21.29;100.00
19108;BME280;9686;48.832;9.126;2022-08-19T06:39:13;97790.38;;;21.35;100.00
19108;BME280;9686;48.832;9.126;2022-08-19T06:41:42;97780.94;;;21.29;100.00
19108;BME280;9686;48.832;9.126;2022-08-19T06:44:08;97792.94;;;21.36;100.00
19108;BME280;9686;48.832;9.126;2022-08-19T06:46:33;97789.66;;;21.31;100.00
19108;BME280;9686;48.832;9.126;2022-08-19T06:48:59;97790.28;;;21.36;100.00
19108;BME280;9686;48.832;9.126;2022-08-19T06:51:25;97792.75;;;21.39;100.00
19108;BME280;9686;48.832;9.126;2022-08-19T06:53:53;97791.53;;;21.45;100.00
19108;BME280;9686;48.832;9.126;2022-08-19T06:56:22;97789.75;;;21.45;100.00
19108;BME280;9686;48.832;9.126;2022-08-19T06:58:50;97793.25;;;21.46;100.00
19108;BME280;9686;48.832;9.126;2022-08-19T07:01:18;97790.69;;;21.44;100.00
19108;BME280;9686;48.832;9.126;2022-08-19T07:03:44;97788.72;;;21.32;100.00
19108;BME280;9686;48.832;9.126;2022-08-19T07:06:14;97794.47;;;21.40;100.00
19108;BME280;9686;48.832;9.126;2022-08-19T07:08:42;97794.47;;;21.40;100.00
19108;BME280;9686;48.832;9.126;2022-08-19T07:11:09;97798.47;;;21.32;100.00
19108;BME280;9686;48.832;9.126;2022-08-19T07:13:37;97800.25;;;21.31;100.00
19108;BME280;9686;48.832;9.126;2022-08-19T07:16:11;97807.44;;;21.29;100.00
19108;BME280;9686;48.832;9.126;2022-08-19T07:18:37;97803.94;;;21.44;100.00
19108;BME280;9686;48.832;9.126;2022-08-19T07:21:06;97800.34;;;21.45;100.00
19108;BME280;9686;48.832;9.126;2022-08-19T07:23:32;97804.72;;;21.46;100.00
19108;BME280;9686;48.832;9.126;2022-08-19T07:25:58;97801.56;;;21.40;100.00
19108;BME280;9686;48.832;9.126;2022-08-19T07:28:23;97812.94;;;21.42;100.00
19108;BME280;9686;48.832;9.126;2022-08-19T07:30:49;97814.56;;;21.44;100.00
19108;BME280;9686;48.832;9.126;2022-08-19T07:33:15;97813.63;;;21.45;100.00
19108;BME280;9686;48.832;9.126;2022-08-19T07:35:42;97805.22;;;21.53;100.00
19108;BME280;9686;48.832;9.126;2022-08-19T07:38:08;97815.56;;;21.58;100.00
19108;BME280;9686;48.832;9.126;2022-08-19T07:40:34;97811.03;;;21.60;100.00
19108;BME280;9686;48.832;9.126;2022-08-19T07:42:59;97812.50;;;21.65;100.00
19108;BME280;9686;48.832;9.126;2022-08-19T07:45:24;97808.91;;;21.66;100.00
19108;BME280;9686;48.832;9.126;2022-08-19T07:47:50;97812.50;;;21.65;100.00
19108;BME280;9686;48.832;9.126;2022-08-19T07:50:17;97808.91;;;21.66;100.00
19108;BME280;9686;48.832;9.126;2022-08-19T07:52:43;97811.56;;;21.66;100.00
19108;BME280;9686;48.832;9.126;2022-08-19T07:55:09;97808.31;;;21.61;100.00
19108;BME280;9686;48.832;9.126;2022-08-19T07:57:35;97815.16;;;21.65;100.00
19108;BME280;9686;48.832;9.126;2022-08-19T08:00:00;97821.63;;;21.60;100.00
19108;BME280;9686;48.832;9.126;2022-08-19T08:02:26;97814.03;;;21.53;100.00
19108;BME280;9686;48.832;9.126;2022-08-19T08:04:51;97811.03;;;21.60;100.00
19108;BME280;9686;48.832;9.126;2022-08-19T08:07:35;97819.25;;;21.55;100.00
19108;BME280;9686;48.832;9.126;2022-08-19T08:10:19;97817.44;;;21.55;100.00
19108;BME280;9686;48.832;9.126;2022-08-19T08:12:45;97818.75;;;21.48;100.00
19108;BME280;9686;48.832;9.126;2022-08-19T08:15:13;97818.56;;;21.51;100.00
19108;BME280;9686;48.832;9.126;2022-08-19T08:17:44;97820.03;;;21.41;100.00
19108;BME280;9686;48.832;9.126;2022-08-19T08:20:10;97828.59;;;21.46;100.00
19108;BME280;9686;48.832;9.126;2022-08-19T08:22:35;97826.69;;;21.48;100.00
19108;BME280;9686;48.832;9.126;2022-08-19T08:25:24;97831.84;;;21.51;100.00
19108;BME280;9686;48.832;9.126;2022-08-19T08:27:50;97828.81;;;21.58;100.00
19108;BME280;9686;48.832;9.126;2022-08-19T08:30:20;97834.41;;;21.53;100.00
19108;BME280;9686;48.832;9.126;2022-08-19T08:32:46;97833.19;;;21.59;100.00
19108;BME280;9686;48.832;9.126;2022-08-19T08:35:14;97833.19;;;21.59;100.00
19108;BME280;9686;48.832;9.126;2022-08-19T08:37:39;97817.84;;;21.79;100.00
19108;BME280;9686;48.832;9.126;2022-08-19T08:40:09;97830.19;;;21.80;100.00
19108;BME280;9686;48.832;9.126;2022-08-19T08:42:45;97830.53;;;21.74;100.00
19108;BME280;9686;48.832;9.126;2022-08-19T08:45:14;97834.72;;;21.78;100.00
19108;BME280;9686;48.832;9.126;2022-08-19T08:47:45;97837.47;;;21.77;100.00
19108;BME280;9686;48.832;9.126;2022-08-19T08:50:24;97829.50;;;21.77;100.00
19108;BME280;9686;48.832;9.126;2022-08-19T08:52:52;97833.19;;;21.74;100.00
19108;BME280;9686;48.832;9.126;2022-08-19T08:55:24;97832.81;;;21.80;100.00
19108;BME280;9686;48.832;9.126;2022-08-19T08:57:57;97831.47;;;21.73;100.00
19108;BME280;9686;48.832;9.126;2022-08-19T09:00:37;97835.56;;;21.79;100.00
19108;BME280;9686;48.832;9.126;2022-08-19T09:03:06;97836.03;;;21.71;100.00
19108;BME280;9686;48.832;9.126;2022-08-19T09:05:49;97831.03;;;21.81;100.00
19108;BME280;9686;48.832;9.126;2022-08-19T09:08:32;97838.91;;;21.82;100.00
19108;BME280;9686;48.832;9.126;2022-08-19T09:11:06;97829.41;;;21.94;100.00
19108;BME280;9686;48.832;9.126;2022-08-19T09:13:41;97826.38;;;22.00;100.00
19108;BME280;9686;48.832;9.126;2022-08-19T09:16:15;97830.56;;;22.20;100.00
19108;BME280;9686;48.832;9.126;2022-08-19T09:18:49;97829.63;;;22.21;100.00
19108;BME280;9686;48.832;9.126;2022-08-19T09:21:19;97833.22;;;22.34;100.00
19108;BME280;9686;48.832;9.126;2022-08-19T09:23:45;97836.22;;;22.44;100.00
19108;BME280;9686;48.832;9.126;2022-08-19T09:26:13;97844.38;;;22.41;100.00
19108;BME280;9686;48.832;9.126;2022-08-19T09:28:40;97835.09;;;22.48;100.00
19108;BME280;9686;48.832;9.126;2022-08-19T09:31:18;97842.59;;;22.56;100.00
19108;BME280;9686;48.832;9.126;2022-08-19T09:33:45;97842.41;;;22.59;100.00
19108;BME280;9686;48.832;9.126;2022-08-19T09:36:15;97841.00;;;22.67;100.00
19108;BME280;9686;48.832;9.126;2022-08-19T09:38:41;97836.91;;;22.76;100.00
19108;BME280;9686;48.832;9.126;2022-08-19T09:41:09;97831.91;;;22.86;100.00
19108;BME280;9686;48.832;9.126;2022-08-19T09:43:39;97839.88;;;22.86;100.00
19108;BME280;9686;48.832;9.126;2022-08-19T09:46:06;97842.75;;;22.83;100.00
19108;BME280;9686;48.832;9.126;2022-08-19T09:48:38;97838.69;;;22.91;100.00
19108;BME280;9686;48.832;9.126;2022-08-19T09:51:14;97847.78;;;22.87;100.00
19108;BME280;9686;48.832;9.126;2022-08-19T09:53:45;97841.50;;;22.88;100.00
19108;BME280;9686;48.832;9.126;2022-08-19T09:56:12;97845.50;;;22.95;100.00
19108;BME280;9686;48.832;9.126;2022-08-19T09:58:38;97847.78;;;22.87;100.00
19108;BME280;9686;48.832;9.126;2022-08-19T10:01:05;97847.97;;;22.84;100.00
19108;BME280;9686;48.832;9.126;2022-08-19T10:03:32;97854.38;;;22.80;100.00
19108;BME280;9686;48.832;9.126;2022-08-19T10:06:00;97848.50;;;22.75;100.00
19108;BME280;9686;48.832;9.126;2022-08-19T10:08:28;97843.00;;;22.78;100.00
19108;BME280;9686;48.832;9.126;2022-08-19T10:10:55;97844.53;;;22.82;100.00
19108;BME280;9686;48.832;9.126;2022-08-19T10:13:23;97840.94;;;22.83;100.00
19108;BME280;9686;48.832;9.126;2022-08-19T10:15:50;97842.66;;;22.84;100.00
19108;BME280;9686;48.832;9.126;2022-08-19T10:18:17;97840.09;;;22.83;100.00
19108;BME280;9686;48.832;9.126;2022-08-19T10:20:44;97844.00;;;22.91;100.00
19108;BME280;9686;48.832;9.126;2022-08-19T10:23:11;97841.81;;;22.98;100.00
19108;BME280;9686;48.832;9.126;2022-08-19T10:25:36;97843.03;;;22.92;100.00
19108;BME280;9686;48.832;9.126;2022-08-19T10:28:02;97837.06;;;23.03;100.00
19108;BME280;9686;48.832;9.126;2022-08-19T10:30:28;97838.09;;;23.00;100.00
19108;BME280;9686;48.832;9.126;2022-08-19T10:32:54;97837.34;;;22.98;100.00
19108;BME280;9686;48.832;9.126;2022-08-19T10:35:19;97842.06;;;23.07;100.00
19108;BME280;9686;48.832;9.126;2022-08-19T10:37:45;97836.75;;;23.07;100.00
19108;BME280;9686;48.832;9.126;2022-08-19T10:40:10;97826.59;;;23.14;100.00
19108;BME280;9686;48.832;9.126;2022-08-19T10:42:36;97822.81;;;23.18;100.00
19108;BME280;9686;48.832;9.126;2022-08-19T10:45:03;97824.78;;;23.29;100.00
19108;BME280;9686;48.832;9.126;2022-08-19T10:47:29;97826.28;;;23.33;100.00
19108;BME280;9686;48.832;9.126;2022-08-19T10:49:55;97819.81;;;23.37;100.00
19108;BME280;9686;48.832;9.126;2022-08-19T10:52:44;97827.69;;;23.38;100.00
19108;BME280;9686;48.832;9.126;2022-08-19T10:55:10;97826.28;;;23.47;100.00
19108;BME280;9686;48.832;9.126;2022-08-19T10:57:54;97825.78;;;23.41;100.00
19108;BME280;9686;48.832;9.126;2022-08-19T11:00:20;97830.00;;;23.30;100.00
19108;BME280;9686;48.832;9.126;2022-08-19T11:02:45;97826.69;;;23.27;100.00
19108;BME280;9686;48.832;9.126;2022-08-19T11:05:11;97826.94;;;23.36;100.00
19108;BME280;9686;48.832;9.126;2022-08-19T11:07:38;97813.63;;;23.36;100.00
19108;BME280;9686;48.832;9.126;2022-08-19T11:10:05;97818.63;;;23.55;100.00
19108;BME280;9686;48.832;9.126;2022-08-19T11:12:30;97819.22;;;23.60;100.00
19108;BME280;9686;48.832;9.126;2022-08-19T11:14:56;97818.91;;;23.65;100.00
19108;BME280;9686;48.832;9.126;2022-08-19T11:17:21;97823.88;;;23.71;100.00
19108;BME280;9686;48.832;9.126;2022-08-19T11:19:49;97814.41;;;23.80;100.00
19108;BME280;9686;48.832;9.126;2022-08-19T11:22:15;97819.00;;;23.90;100.00
19108;BME280;9686;48.832;9.126;2022-08-19T11:24:40;97810.81;;;23.93;100.00
19108;BME280;9686;48.832;9.126;2022-08-19T11:27:08;97819.13;;;23.89;100.00
19108;BME280;9686;48.832;9.126;2022-08-19T11:29:37;97816.13;;;23.93;100.00
19108;BME280;9686;48.832;9.126;2022-08-19T11:32:08;97805.75;;;24.03;100.00
19108;BME280;9686;48.832;9.126;2022-08-19T11:34:35;97812.16;;;24.13;100.00
19108;BME280;9686;48.832;9.126;2022-08-19T11:37:01;97809.47;;;24.01;100.00
19108;BME280;9686;48.832;9.126;2022-08-19T11:39:28;97819.16;;;24.02;100.00
19108;BME280;9686;48.832;9.126;2022-08-19T11:41:54;97817.06;;;24.07;100.00
19108;BME280;9686;48.832;9.126;2022-08-19T11:44:19;97812.25;;;24.12;100.00
19108;BME280;9686;48.832;9.126;2022-08-19T11:46:45;97814.31;;;24.21;100.00
19108;BME280;9686;48.832;9.126;2022-08-19T11:49:13;97805.22;;;24.11;100.00
19108;BME280;9686;48.832;9.126;2022-08-19T11:51:38;97806.97;;;24.24;100.00
19108;BME280;9686;48.832;9.126;2022-08-19T11:54:05;97810.72;;;24.22;100.00
19108;BME280;9686;48.832;9.126;2022-08-19T11:56:30;97816.78;;;24.24;100.00
19108;BME280;9686;48.832;9.126;2022-08-19T11:58:57;97814.00;;;24.25;100.00
19108;BME280;9686;48.832;9.126;2022-08-19T12:01:24;97816.09;;;24.08;100.00
19108;BME280;9686;48.832;9.126;2022-08-19T12:03:52;97812.69;;;24.06;100.00
19108;BME280;9686;48.832;9.126;2022-08-19T12:06:22;97816.63;;;24.13;100.00
19108;BME280;9686;48.832;9.126;2022-08-19T12:08:52;97805.66;;;24.17;100.00
19108;BME280;9686;48.832;9.126;2022-08-19T12:11:19;97798.53;;;24.18;100.00
19108;BME280;9686;48.832;9.126;2022-08-19T12:13:45;97795.84;;;24.18;100.00
19108;BME280;9686;48.832;9.126;2022-08-19T12:16:21;97805.28;;;24.23;100.00
19108;BME280;9686;48.832;9.126;2022-08-19T12:18:49;97799.72;;;24.26;100.00
19108;BME280;9686;48.832;9.126;2022-08-19T12:21:18;97806.13;;;24.24;100.00
19108;BME280;9686;48.832;9.126;2022-08-19T12:23:47;97797.38;;;24.22;100.00
19108;BME280;9686;48.832;9.126;2022-08-19T12:26:12;97796.19;;;24.13;100.00
19108;BME280;9686;48.832;9.126;2022-08-19T12:28:38;97794.06;;;24.18;100.00
19108;BME280;9686;48.832;9.126;2022-08-19T12:31:04;97797.03;;;24.14;100.00
19108;BME280;9686;48.832;9.126;2022-08-19T12:33:29;97797.13;;;24.12;99.47
19108;BME280;9686;48.832;9.126;2022-08-19T12:36:00;97793.50;;;24.13;99.96
19108;BME280;9686;48.832;9.126;2022-08-19T12:38:27;97802.47;;;24.12;100.00
19108;BME280;9686;48.832;9.126;2022-08-19T12:40:53;97793.41;;;24.15;100.00
19108;BME280;9686;48.832;9.126;2022-08-19T12:43:18;97796.53;;;24.21;100.00
19108;BME280;9686;48.832;9.126;2022-08-19T12:45:45;97788.22;;;24.26;97.89
19108;BME280;9686;48.832;9.126;2022-08-19T12:48:11;97794.75;;;24.35;98.10
19108;BME280;9686;48.832;9.126;2022-08-19T12:50:40;97792.31;;;24.44;96.56
19108;BME280;9686;48.832;9.126;2022-08-19T12:53:05;97792.19;;;24.46;96.84
19108;BME280;9686;48.832;9.126;2022-08-19T12:55:31;97799.16;;;24.48;100.00
19108;BME280;9686;48.832;9.126;2022-08-19T12:57:56;97797.88;;;24.54;99.67
19108;BME280;9686;48.832;9.126;2022-08-19T13:00:22;97800.00;;;24.49;99.68
19108;BME280;9686;48.832;9.126;2022-08-19T13:02:50;97803.06;;;24.43;99.50
19108;BME280;9686;48.832;9.126;2022-08-19T13:05:23;97802.44;;;24.39;100.00